createdAt,value
2022-08-06T00:00:02.523Z,27.00
2022-08-06T00:02:29.163Z,26.90
2022-08-06T00:05:00.164Z,26.90
2022-08-06T00:07:44.879Z,26.70
2022-08-06T00:10:17.849Z,26.70
2022-08-06T00:12:48.637Z,26.70
2022-08-06T00:16:06.685Z,26.70
2022-08-06T00:18:12.042Z,26.80
2022-08-06T00:20:42.802Z,26.70
2022-08-06T00:23:17.052Z,26.70
2022-08-06T00:25:52.129Z,26.80
2022-08-06T00:28:25.920Z,26.70
2022-08-06T00:31:01.077Z,26.60
2022-08-06T00:33:44.005Z,26.60
2022-08-06T00:36:25.115Z,26.60
2022-08-06T00:39:00.090Z,26.60
2022-08-06T00:41:45.598Z,26.60
2022-08-06T00:44:23.271Z,26.60
2022-08-06T00:47:00.207Z,26.50
2022-08-06T00:49:49.835Z,26.40
2022-08-06T00:52:19.214Z,26.30
2022-08-06T00:54:50.222Z,26.20
2022-08-06T00:57:22.724Z,26.20
2022-08-06T00:59:52.191Z,26.10
2022-08-06T01:02:23.697Z,26.00
2022-08-06T01:05:00.906Z,25.80
2022-08-06T01:07:51.844Z,25.80
2022-08-06T01:10:30.933Z,25.70
2022-08-06T01:12:59.851Z,25.70
2022-08-06T01:15:48.617Z,25.60
2022-08-06T01:18:29.424Z,25.50
2022-08-06T01:22:00.297Z,25.40
2022-08-06T01:24:35.949Z,25.40
2022-08-06T01:27:34.940Z,25.30
2022-08-06T01:30:07.665Z,25.20
2022-08-06T01:32:45.663Z,25.20
2022-08-06T01:35:47.550Z,25.20
2022-08-06T01:38:19.811Z,25.20
2022-08-06T01:40:53.080Z,25.20
2022-08-06T01:44:06.728Z,25.20
2022-08-06T01:46:16.828Z,25.20
2022-08-06T01:48:46.451Z,25.10
2022-08-06T01:51:17.311Z,25.10
2022-08-06T01:54:07.345Z,25.10
2022-08-06T01:56:56.866Z,25.00
2022-08-06T01:59:34.740Z,25.00
2022-08-06T02:02:10.209Z,25.00
2022-08-06T02:04:45.000Z,24.90
2022-08-06T02:08:38.184Z,24.90
2022-08-06T02:10:12.904Z,24.90
2022-08-06T02:12:42.725Z,25.00
2022-08-06T02:15:18.205Z,25.10
2022-08-06T02:18:03.910Z,25.10
2022-08-06T02:20:38.308Z,25.10
2022-08-06T02:23:17.407Z,25.00
2022-08-06T02:25:51.940Z,25.00
2022-08-06T02:28:25.609Z,25.00
2022-08-06T02:30:59.429Z,24.90
2022-08-06T02:34:03.628Z,24.90
2022-08-06T02:36:27.294Z,24.90
2022-08-06T02:39:04.188Z,24.90
2022-08-06T02:41:53.801Z,25.00
2022-08-06T02:44:37.128Z,25.00
2022-08-06T02:47:13.481Z,25.10
2022-08-06T02:49:57.861Z,25.10
2022-08-06T02:52:36.999Z,25.00
2022-08-06T02:55:12.889Z,24.90
2022-08-06T02:57:51.586Z,24.90
2022-08-06T03:00:25.404Z,24.90
2022-08-06T03:03:02.501Z,24.90
2022-08-06T03:05:56.527Z,24.90
2022-08-06T03:08:26.557Z,25.00
2022-08-06T03:10:57.238Z,25.00
2022-08-06T03:13:29.298Z,25.00
2022-08-06T03:16:23.155Z,24.90
2022-08-06T03:19:55.531Z,24.80
2022-08-06T03:21:55.408Z,24.70
2022-08-06T03:24:30.062Z,24.60
2022-08-06T03:27:01.223Z,24.70
2022-08-06T03:29:31.223Z,24.70
2022-08-06T03:32:25.099Z,24.80
2022-08-06T03:34:52.337Z,24.80
2022-08-06T03:37:28.751Z,24.90
2022-08-06T03:40:14.155Z,24.90
2022-08-06T03:42:44.260Z,24.90
2022-08-06T03:45:23.711Z,24.90
2022-08-06T03:48:08.708Z,24.80
2022-08-06T03:50:45.898Z,24.80
2022-08-06T03:53:20.002Z,24.60
2022-08-06T03:55:58.482Z,24.50
2022-08-06T03:58:29.980Z,24.50
2022-08-06T04:01:04.630Z,24.50
2022-08-06T04:03:39.605Z,24.50
2022-08-06T04:06:16.360Z,24.50
2022-08-06T04:08:50.393Z,24.50
2022-08-06T04:12:10.810Z,24.50
2022-08-06T04:14:12.130Z,24.50
2022-08-06T04:16:48.824Z,24.60
2022-08-06T04:19:25.551Z,24.60
2022-08-06T04:23:07.828Z,24.70
2022-08-06T04:24:51.206Z,24.80
2022-08-06T04:27:22.692Z,24.80
2022-08-06T04:29:58.559Z,24.80
2022-08-06T04:32:29.738Z,24.90
2022-08-06T04:36:05.434Z,24.90
2022-08-06T04:37:54.543Z,25.00
2022-08-06T04:40:34.698Z,25.00
2022-08-06T04:43:06.600Z,25.10
2022-08-06T04:46:14.612Z,25.10
2022-08-06T04:48:27.632Z,25.20
2022-08-06T04:51:04.552Z,25.20
2022-08-06T04:53:56.328Z,25.30
2022-08-06T04:56:33.181Z,25.30
2022-08-06T04:59:07.686Z,25.40
2022-08-06T05:01:53.109Z,25.40
2022-08-06T05:04:25.881Z,25.40
2022-08-06T05:07:02.552Z,25.50
2022-08-06T05:09:42.550Z,25.60
2022-08-06T05:12:22.037Z,25.80
2022-08-06T05:14:55.643Z,25.90
2022-08-06T05:17:34.391Z,26.00
2022-08-06T05:20:13.005Z,26.20
2022-08-06T05:23:03.276Z,26.40
2022-08-06T05:25:37.607Z,26.80
2022-08-06T05:28:10.330Z,27.30
2022-08-06T05:30:47.692Z,27.90
2022-08-06T05:33:26.535Z,28.50
2022-08-06T05:36:05.043Z,29.10
2022-08-06T05:38:36.259Z,29.60
2022-08-06T05:41:09.152Z,29.90
2022-08-06T05:43:58.008Z,30.50
2022-08-06T05:46:28.476Z,30.70
2022-08-06T05:49:02.490Z,31.20
2022-08-06T05:51:45.837Z,31.50
2022-08-06T05:54:30.842Z,32.00
2022-08-06T05:57:08.996Z,32.30
2022-08-06T05:59:57.703Z,32.70
2022-08-06T06:02:30.940Z,33.10
2022-08-06T06:06:08.130Z,33.60
2022-08-06T06:08:10.051Z,34.00
2022-08-06T06:10:43.853Z,34.40
2022-08-06T06:13:32.423Z,34.70
2022-08-06T06:16:35.262Z,35.00
2022-08-06T06:19:17.091Z,35.40
2022-08-06T06:22:01.988Z,35.80
2022-08-06T06:24:35.110Z,36.20
2022-08-06T06:27:23.343Z,36.50
2022-08-06T06:30:09.062Z,37.00
2022-08-06T06:32:47.780Z,37.40
2022-08-06T06:35:36.960Z,37.60
2022-08-06T06:38:32.693Z,36.60
2022-08-06T06:41:20.286Z,35.80
2022-08-06T06:43:55.469Z,35.10
2022-08-06T06:46:49.715Z,34.50
2022-08-06T06:50:01.156Z,34.30
2022-08-06T06:52:26.627Z,34.00
2022-08-06T06:55:11.691Z,34.00
2022-08-06T06:57:48.452Z,33.90
2022-08-06T07:00:46.141Z,33.70
2022-08-06T07:03:12.202Z,33.60
2022-08-06T07:06:02.614Z,33.50
2022-08-06T07:08:37.498Z,33.40
2022-08-06T07:11:12.972Z,33.30
2022-08-06T07:13:51.886Z,33.30
2022-08-06T07:16:35.374Z,33.30
2022-08-06T07:19:10.329Z,33.30
2022-08-06T07:21:42.649Z,33.40
2022-08-06T07:24:36.937Z,33.30
2022-08-06T07:27:07.942Z,33.30
2022-08-06T07:29:49.082Z,33.40
2022-08-06T07:32:33.762Z,33.50
2022-08-06T07:35:12.005Z,33.50
2022-08-06T07:37:44.560Z,33.70
2022-08-06T07:40:19.871Z,33.80
2022-08-06T07:42:51.849Z,33.90
2022-08-06T07:45:25.428Z,34.00
2022-08-06T07:48:04.638Z,34.10
2022-08-06T07:50:42.077Z,34.20
2022-08-06T07:53:16.033Z,34.20
2022-08-06T07:55:44.629Z,34.30
2022-08-06T07:58:17.118Z,34.20
2022-08-06T08:00:49.444Z,34.40
2022-08-06T08:03:43.358Z,34.40
2022-08-06T08:06:29.311Z,34.50
2022-08-06T08:09:04.223Z,34.40
2022-08-06T08:12:25.753Z,34.40
2022-08-06T08:14:31.379Z,34.40
2022-08-06T08:17:01.539Z,34.40
2022-08-06T08:19:34.908Z,34.30
2022-08-06T08:22:07.855Z,34.30
2022-08-06T08:24:37.905Z,34.40
2022-08-06T08:27:21.877Z,34.50
2022-08-06T08:29:57.077Z,34.50
2022-08-06T08:32:28.349Z,34.50
2022-08-06T08:34:57.715Z,34.50
2022-08-06T08:37:32.162Z,34.70
2022-08-06T08:40:04.908Z,34.80
2022-08-06T08:42:42.268Z,34.90
2022-08-06T08:45:13.507Z,35.00
2022-08-06T08:47:53.957Z,35.10
2022-08-06T08:50:30.443Z,35.10
2022-08-06T08:53:05.369Z,35.20
2022-08-06T08:57:11.129Z,35.20
2022-08-06T08:58:40.082Z,35.00
2022-08-06T09:01:51.400Z,35.10
2022-08-06T09:04:05.450Z,35.20
2022-08-06T09:06:37.362Z,35.30
2022-08-06T09:09:15.598Z,35.30
2022-08-06T09:12:03.780Z,35.40
2022-08-06T09:14:34.195Z,35.50
2022-08-06T09:17:03.934Z,35.70
2022-08-06T09:19:37.808Z,35.80
2022-08-06T09:22:08.908Z,35.90
2022-08-06T09:24:40.244Z,35.70
2022-08-06T09:27:45.604Z,35.60
2022-08-06T09:30:03.727Z,35.60
2022-08-06T09:32:56.532Z,35.50
2022-08-06T09:35:43.700Z,35.60
2022-08-06T09:38:17.723Z,35.80
2022-08-06T09:41:15.253Z,35.70
2022-08-06T09:44:03.339Z,35.80
2022-08-06T09:46:41.858Z,35.70
2022-08-06T09:49:49.110Z,35.70
2022-08-06T09:52:22.193Z,35.60
2022-08-06T09:54:53.004Z,35.70
2022-08-06T09:57:33.221Z,35.70
2022-08-06T10:00:09.634Z,35.80
2022-08-06T10:02:50.625Z,35.80
2022-08-06T10:05:21.108Z,35.70
2022-08-06T10:08:05.266Z,35.80
2022-08-06T10:10:45.207Z,35.90
2022-08-06T10:13:22.804Z,35.90
2022-08-06T10:16:01.392Z,35.90
2022-08-06T10:18:55.709Z,35.90
2022-08-06T10:21:33.258Z,35.90
2022-08-06T10:24:12.314Z,35.90
2022-08-06T10:26:43.596Z,35.80
2022-08-06T10:29:16.570Z,35.80
2022-08-06T10:31:52.992Z,35.80
2022-08-06T10:34:31.099Z,35.90
2022-08-06T10:37:07.909Z,35.90
2022-08-06T10:40:07.598Z,36.00
2022-08-06T10:42:40.128Z,36.00
2022-08-06T10:45:16.577Z,36.00
2022-08-06T10:48:59.029Z,36.10
2022-08-06T10:50:52.887Z,36.20
2022-08-06T10:54:02.235Z,36.10
2022-08-06T10:56:18.134Z,35.90
2022-08-06T10:58:50.905Z,35.90
2022-08-06T11:01:36.604Z,36.00
2022-08-06T11:04:22.012Z,35.90
2022-08-06T11:07:08.012Z,35.90
2022-08-06T11:10:03.031Z,35.80
2022-08-06T11:12:50.821Z,35.90
2022-08-06T11:15:22.575Z,35.90
2022-08-06T11:17:55.361Z,35.90
2022-08-06T11:20:45.002Z,35.80
2022-08-06T11:23:58.512Z,35.80
2022-08-06T11:26:44.112Z,35.90
2022-08-06T11:29:15.404Z,35.80
2022-08-06T11:31:56.677Z,35.60
2022-08-06T11:34:51.463Z,35.50
2022-08-06T11:38:00.166Z,35.50
2022-08-06T11:40:58.409Z,35.60
2022-08-06T11:44:02.814Z,35.60
2022-08-06T11:46:36.409Z,35.70
2022-08-06T11:49:18.248Z,35.80
2022-08-06T11:52:03.915Z,35.90
2022-08-06T11:54:38.520Z,36.00
2022-08-06T11:57:40.551Z,36.00
2022-08-06T12:00:15.977Z,35.90
2022-08-06T12:02:56.623Z,36.00
2022-08-06T12:05:57.305Z,36.10
2022-08-06T12:08:42.246Z,36.10
2022-08-06T12:11:35.932Z,36.10
2022-08-06T12:14:33.333Z,36.10
2022-08-06T12:16:58.615Z,36.00
2022-08-06T12:19:34.193Z,35.90
2022-08-06T12:22:07.339Z,36.00
2022-08-06T12:25:05.522Z,36.10
2022-08-06T12:27:33.080Z,36.10
2022-08-06T12:30:02.390Z,36.20
2022-08-06T12:32:35.031Z,36.10
2022-08-06T12:35:22.926Z,36.10
2022-08-06T12:37:52.088Z,36.00
2022-08-06T12:40:28.161Z,35.90
2022-08-06T12:43:15.326Z,35.90
2022-08-06T12:46:06.411Z,35.90
2022-08-06T12:48:35.305Z,35.90
2022-08-06T12:51:11.106Z,35.90
2022-08-06T12:53:47.158Z,35.90
2022-08-06T12:56:31.037Z,35.90
2022-08-06T12:59:03.991Z,35.90
2022-08-06T13:02:06.920Z,36.00
2022-08-06T13:04:27.545Z,35.90
2022-08-06T13:07:02.792Z,35.90
2022-08-06T13:09:35.833Z,36.10
2022-08-06T13:12:44.722Z,36.20
2022-08-06T13:15:18.194Z,36.30
2022-08-06T13:18:41.241Z,36.30
2022-08-06T13:21:03.013Z,36.20
2022-08-06T13:23:35.283Z,36.20
2022-08-06T13:26:23.331Z,36.00
2022-08-06T13:30:35.454Z,35.90
2022-08-06T13:32:19.629Z,35.90
2022-08-06T13:34:57.556Z,36.00
2022-08-06T13:37:56.575Z,36.20
2022-08-06T13:40:57.552Z,36.30
2022-08-06T13:43:42.800Z,36.50
2022-08-06T13:46:20.020Z,36.50
2022-08-06T13:48:58.354Z,36.60
2022-08-06T13:51:28.848Z,36.60
2022-08-06T13:53:59.504Z,36.70
2022-08-06T13:56:48.382Z,36.70
2022-08-06T13:59:18.564Z,36.70
2022-08-06T14:01:49.611Z,36.80
2022-08-06T14:04:25.278Z,36.70
2022-08-06T16:56:21.600Z,35.60
2022-08-06T16:58:53.175Z,34.70
2022-08-06T17:02:14.473Z,34.30
2022-08-06T17:04:25.822Z,34.10
2022-08-06T17:06:56.420Z,34.00
2022-08-06T17:09:25.300Z,33.80
2022-08-06T17:12:01.203Z,33.60
2022-08-06T17:14:32.839Z,33.30
2022-08-06T17:17:05.365Z,33.10
2022-08-06T17:19:37.174Z,32.70
2022-08-06T17:22:30.631Z,32.00
2022-08-06T17:24:59.849Z,31.60
2022-08-06T17:27:44.310Z,31.20
2022-08-06T17:30:20.839Z,31.10
2022-08-06T17:32:54.473Z,30.90
2022-08-06T17:35:23.365Z,30.80
2022-08-06T17:41:01.450Z,30.80
2022-08-06T17:43:56.712Z,30.70
2022-08-06T17:46:31.428Z,30.70
2022-08-06T17:49:07.484Z,30.90
2022-08-06T17:51:36.242Z,31.20
2022-08-06T17:54:26.472Z,31.10
2022-08-06T17:56:56.883Z,30.80
2022-08-06T17:59:31.448Z,30.30
2022-08-06T18:02:01.821Z,29.90
2022-08-06T18:04:34.626Z,29.50
2022-08-06T18:07:12.095Z,29.20
2022-08-06T18:10:11.509Z,28.90
2022-08-06T18:12:49.253Z,28.70
2022-08-06T18:15:40.255Z,28.60
2022-08-06T18:18:10.681Z,28.70
2022-08-06T18:20:43.925Z,28.70
2022-08-06T18:23:20.541Z,28.50
2022-08-06T18:25:55.978Z,28.50
2022-08-06T18:28:33.325Z,28.30
2022-08-06T18:31:09.907Z,28.20
2022-08-06T18:33:42.724Z,28.20
2022-08-06T18:36:15.404Z,28.10
2022-08-06T18:38:45.187Z,28.30
2022-08-06T18:41:15.603Z,28.40
2022-08-06T18:43:54.146Z,28.40
2022-08-06T18:47:02.539Z,28.30
2022-08-06T18:49:32.525Z,28.30
2022-08-06T18:52:10.995Z,28.40
2022-08-06T18:54:56.597Z,28.70
2022-08-06T18:57:38.251Z,29.00
2022-08-06T19:00:21.097Z,29.30
2022-08-06T19:02:55.006Z,29.40
2022-08-06T19:05:28.229Z,29.50
2022-08-06T19:07:59.584Z,29.60
2022-08-06T19:10:29.539Z,29.60
2022-08-06T19:12:59.729Z,29.60
2022-08-06T19:15:46.638Z,29.50
2022-08-06T19:18:25.738Z,29.40
2022-08-06T19:20:54.905Z,29.20
2022-08-06T19:24:03.428Z,29.00
2022-08-06T19:26:13.690Z,29.00
2022-08-06T19:28:49.116Z,28.90
2022-08-06T19:31:23.453Z,28.90
2022-08-06T19:33:54.708Z,28.90
2022-08-06T19:36:31.194Z,28.90
2022-08-06T19:39:00.865Z,29.00
2022-08-06T19:41:55.847Z,28.90
2022-08-06T19:44:25.592Z,28.80
2022-08-06T19:46:58.321Z,28.60
2022-08-06T19:49:40.319Z,28.40
2022-08-06T19:52:10.973Z,28.50
2022-08-06T19:54:41.924Z,28.40
2022-08-06T19:57:25.548Z,28.30
2022-08-06T20:00:52.990Z,28.30
2022-08-06T20:02:51.240Z,28.40
2022-08-06T20:06:19.717Z,28.30
2022-08-06T20:08:32.339Z,28.20
2022-08-06T20:11:03.860Z,28.20
2022-08-06T20:13:36.653Z,28.20
2022-08-06T20:16:09.953Z,28.20
2022-08-06T20:18:38.662Z,28.00
2022-08-06T20:21:09.649Z,28.00
2022-08-06T20:23:41.197Z,28.00
2022-08-06T20:26:34.629Z,27.90
2022-08-06T20:29:07.786Z,27.90
2022-08-06T20:31:55.525Z,27.90
2022-08-06T20:34:27.793Z,27.70
2022-08-06T20:37:02.740Z,27.50
2022-08-06T20:39:32.066Z,27.20
2022-08-06T20:42:05.127Z,27.00
2022-08-06T20:44:37.346Z,26.70
2022-08-06T20:47:45.800Z,26.50
2022-08-06T20:50:04.116Z,26.40
2022-08-06T20:52:35.619Z,26.40
2022-08-06T20:55:11.201Z,26.50
2022-08-06T20:57:47.817Z,26.50
2022-08-06T21:00:28.405Z,26.50
2022-08-06T21:03:28.038Z,26.60
2022-08-06T21:05:50.368Z,26.60
2022-08-06T21:08:26.753Z,26.60
2022-08-06T21:11:00.826Z,26.50
2022-08-06T21:13:35.885Z,26.50
2022-08-06T21:16:14.804Z,26.50
2022-08-06T21:18:58.363Z,26.50
2022-08-06T21:21:31.417Z,26.60
2022-08-06T21:24:03.258Z,26.70
2022-08-06T21:26:35.429Z,26.70
2022-08-06T21:29:41.887Z,26.70
2022-08-06T21:31:57.351Z,26.70
2022-08-06T21:34:27.137Z,26.80
2022-08-06T21:36:56.592Z,26.70
2022-08-06T21:39:52.005Z,26.60
2022-08-06T21:42:16.572Z,26.60
2022-08-06T21:44:49.709Z,26.50
2022-08-06T21:47:19.581Z,26.40
2022-08-06T21:49:59.991Z,26.40
2022-08-06T21:52:33.877Z,26.20
2022-08-06T21:56:34.985Z,26.10
2022-08-06T21:58:02.789Z,26.10
2022-08-06T22:00:47.457Z,25.90
2022-08-06T22:04:34.947Z,25.70
2022-08-06T22:06:17.288Z,25.50
2022-08-06T22:08:59.961Z,25.40
2022-08-06T22:12:36.451Z,25.40
2022-08-06T22:14:29.009Z,25.40
2022-08-06T22:17:05.558Z,25.40
2022-08-06T22:19:34.580Z,25.40
2022-08-06T22:22:08.374Z,25.40
2022-08-06T22:24:39.092Z,25.40
2022-08-06T22:27:12.654Z,25.40
2022-08-06T22:29:58.756Z,25.30
2022-08-06T22:32:29.384Z,25.40
2022-08-06T22:34:59.794Z,25.40
2022-08-06T22:38:16.872Z,25.40
2022-08-06T22:40:19.857Z,25.40
2022-08-06T22:42:59.171Z,25.50
2022-08-06T22:46:00.072Z,25.50
2022-08-06T22:48:34.814Z,25.50
2022-08-06T22:51:11.943Z,25.50
2022-08-06T22:54:28.483Z,25.50
2022-08-06T22:56:38.397Z,25.50
2022-08-06T22:59:31.346Z,25.60
2022-08-06T23:02:07.009Z,25.50
2022-08-06T23:04:46.078Z,25.60
2022-08-06T23:07:25.209Z,25.40
2022-08-06T23:09:54.430Z,25.30
2022-08-06T23:12:31.345Z,25.20
2022-08-06T23:15:20.150Z,25.20
2022-08-06T23:18:00.401Z,25.10
2022-08-06T23:20:32.696Z,25.00
2022-08-06T23:23:04.276Z,24.90
2022-08-06T23:26:01.577Z,24.80
2022-08-06T23:28:22.986Z,24.80
2022-08-06T23:30:53.593Z,24.80
2022-08-06T23:33:22.467Z,24.80
2022-08-06T23:35:51.280Z,24.90
2022-08-06T23:38:33.285Z,24.80
2022-08-06T23:41:05.143Z,24.70
2022-08-06T23:43:44.474Z,24.60
2022-08-06T23:46:14.408Z,24.50
2022-08-06T23:54:04.305Z,24.40
2022-08-06T23:56:05.019Z,24.40
2022-08-06T23:58:36.529Z,24.40
